sensor_id;sensor_type;location;lat;lon;timestamp;P1;durP1;ratioP1;P2;durP2;ratioP2
5650;SDS011;40241;52.684;9.758;2023-09-30T00:01:43;6.37;;;3.23;;
5650;SDS011;40241;52.684;9.758;2023-09-30T00:04:09;5.60;;;2.33;;
5650;SDS011;40241;52.684;9.758;2023-09-30T00:06:34;7.80;;;2.37;;
5650;SDS011;40241;52.684;9.758;2023-09-30T00:09:00;9.63;;;2.90;;
5650;SDS011;40241;52.684;9.758;2023-09-30T00:11:25;5.77;;;3.03;;
5650;SDS011;40241;52.684;9.758;2023-09-30T00:13:51;5.20;;;2.50;;
5650;SDS011;40241;52.684;9.758;2023-09-30T00:16:16;4.83;;;2.40;;
5650;SDS011;40241;52.684;9.758;2023-09-30T00:18:44;4.67;;;2.37;;
5650;SDS011;40241;52.684;9.758;2023-09-30T00:21:10;5.00;;;2.10;;
5650;SDS011;40241;52.684;9.758;2023-09-30T00:23:36;4.53;;;2.10;;
5650;SDS011;40241;52.684;9.758;2023-09-30T00:26:01;5.17;;;2.47;;
5650;SDS011;40241;52.684;9.758;2023-09-30T00:28:27;6.60;;;2.47;;
5650;SDS011;40241;52.684;9.758;2023-09-30T00:30:53;10.10;;;2.30;;
5650;SDS011;40241;52.684;9.758;2023-09-30T00:33:19;7.30;;;2.80;;
5650;SDS011;40241;52.684;9.758;2023-09-30T00:35:44;6.07;;;2.40;;
5650;SDS011;40241;52.684;9.758;2023-09-30T00:38:10;7.50;;;3.00;;
5650;SDS011;40241;52.684;9.758;2023-09-30T00:40:35;4.27;;;2.30;;
5650;SDS011;40241;52.684;9.758;2023-09-30T00:43:00;3.90;;;1.77;;
5650;SDS011;40241;52.684;9.758;2023-09-30T00:45:26;4.60;;;2.13;;
5650;SDS011;40241;52.684;9.758;2023-09-30T00:47:52;4.90;;;2.50;;
5650;SDS011;40241;52.684;9.758;2023-09-30T00:50:19;4.27;;;2.20;;
5650;SDS011;40241;52.684;9.758;2023-09-30T00:52:45;4.00;;;2.00;;
5650;SDS011;40241;52.684;9.758;2023-09-30T00:55:13;5.70;;;2.50;;
5650;SDS011;40241;52.684;9.758;2023-09-30T00:57:40;3.97;;;2.23;;
5650;SDS011;40241;52.684;9.758;2023-09-30T01:00:06;4.73;;;2.23;;
5650;SDS011;40241;52.684;9.758;2023-09-30T01:02:32;8.27;;;2.60;;
5650;SDS011;40241;52.684;9.758;2023-09-30T01:04:59;7.63;;;2.40;;
5650;SDS011;40241;52.684;9.758;2023-09-30T01:07:26;7.07;;;2.80;;
5650;SDS011;40241;52.684;9.758;2023-09-30T01:09:51;4.10;;;2.30;;
5650;SDS011;40241;52.684;9.758;2023-09-30T01:12:16;5.73;;;2.37;;
5650;SDS011;40241;52.684;9.758;2023-09-30T01:14:42;6.70;;;2.67;;
5650;SDS011;40241;52.684;9.758;2023-09-30T01:17:07;5.43;;;2.40;;
5650;SDS011;40241;52.684;9.758;2023-09-30T01:19:38;6.13;;;2.47;;
5650;SDS011;40241;52.684;9.758;2023-09-30T01:22:04;6.87;;;2.67;;
5650;SDS011;40241;52.684;9.758;2023-09-30T01:24:29;5.83;;;2.90;;
5650;SDS011;40241;52.684;9.758;2023-09-30T01:26:55;6.70;;;2.77;;
5650;SDS011;40241;52.684;9.758;2023-09-30T01:29:21;6.10;;;2.33;;
5650;SDS011;40241;52.684;9.758;2023-09-30T01:31:47;3.30;;;2.17;;
5650;SDS011;40241;52.684;9.758;2023-09-30T01:34:13;6.73;;;2.47;;
5650;SDS011;40241;52.684;9.758;2023-09-30T01:36:40;6.73;;;2.83;;
5650;SDS011;40241;52.684;9.758;2023-09-30T01:39:06;7.27;;;2.67;;
5650;SDS011;40241;52.684;9.758;2023-09-30T01:41:32;6.80;;;2.87;;
5650;SDS011;40241;52.684;9.758;2023-09-30T01:43:57;6.80;;;2.60;;
5650;SDS011;40241;52.684;9.758;2023-09-30T01:46:23;5.17;;;2.50;;
5650;SDS011;40241;52.684;9.758;2023-09-30T01:48:48;6.00;;;2.73;;
5650;SDS011;40241;52.684;9.758;2023-09-30T01:51:13;11.03;;;2.90;;
5650;SDS011;40241;52.684;9.758;2023-09-30T01:53:39;6.90;;;2.60;;
5650;SDS011;40241;52.684;9.758;2023-09-30T01:56:04;3.43;;;2.10;;
5650;SDS011;40241;52.684;9.758;2023-09-30T01:58:30;5.30;;;2.03;;
5650;SDS011;40241;52.684;9.758;2023-09-30T02:01:02;5.03;;;2.30;;
5650;SDS011;40241;52.684;9.758;2023-09-30T02:03:28;6.83;;;3.00;;
5650;SDS011;40241;52.684;9.758;2023-09-30T02:05:54;7.13;;;2.83;;
5650;SDS011;40241;52.684;9.758;2023-09-30T02:08:20;11.40;;;3.17;;
5650;SDS011;40241;52.684;9.758;2023-09-30T02:10:45;6.37;;;2.73;;
5650;SDS011;40241;52.684;9.758;2023-09-30T02:13:10;4.77;;;2.70;;
5650;SDS011;40241;52.684;9.758;2023-09-30T02:15:39;5.57;;;2.60;;
5650;SDS011;40241;52.684;9.758;2023-09-30T02:18:05;5.20;;;2.60;;
5650;SDS011;40241;52.684;9.758;2023-09-30T02:20:30;3.67;;;2.10;;
5650;SDS011;40241;52.684;9.758;2023-09-30T02:22:56;5.70;;;2.40;;
5650;SDS011;40241;52.684;9.758;2023-09-30T02:25:23;5.63;;;2.00;;
5650;SDS011;40241;52.684;9.758;2023-09-30T02:27:49;5.73;;;2.20;;
5650;SDS011;40241;52.684;9.758;2023-09-30T02:30:15;4.90;;;2.40;;
5650;SDS011;40241;52.684;9.758;2023-09-30T02:32:41;4.90;;;2.73;;
5650;SDS011;40241;52.684;9.758;2023-09-30T02:35:07;3.27;;;2.07;;
5650;SDS011;40241;52.684;9.758;2023-09-30T02:37:35;4.63;;;2.20;;
5650;SDS011;40241;52.684;9.758;2023-09-30T02:40:05;4.53;;;2.20;;
5650;SDS011;40241;52.684;9.758;2023-09-30T02:42:35;5.03;;;2.37;;
5650;SDS011;40241;52.684;9.758;2023-09-30T02:45:04;3.37;;;2.23;;
5650;SDS011;40241;52.684;9.758;2023-09-30T02:47:30;3.80;;;2.30;;
5650;SDS011;40241;52.684;9.758;2023-09-30T02:49:57;8.17;;;2.43;;
5650;SDS011;40241;52.684;9.758;2023-09-30T02:52:23;4.33;;;2.07;;
5650;SDS011;40241;52.684;9.758;2023-09-30T02:54:52;6.63;;;2.30;;
5650;SDS011;40241;52.684;9.758;2023-09-30T02:57:17;5.30;;;2.57;;
5650;SDS011;40241;52.684;9.758;2023-09-30T02:59:43;4.30;;;2.40;;
5650;SDS011;40241;52.684;9.758;2023-09-30T03:02:09;4.20;;;2.27;;
5650;SDS011;40241;52.684;9.758;2023-09-30T03:04:36;3.57;;;2.03;;
5650;SDS011;40241;52.684;9.758;2023-09-30T03:07:01;3.90;;;1.90;;
5650;SDS011;40241;52.684;9.758;2023-09-30T03:09:27;7.30;;;2.37;;
5650;SDS011;40241;52.684;9.758;2023-09-30T03:11:52;9.43;;;2.47;;
5650;SDS011;40241;52.684;9.758;2023-09-30T03:14:21;6.73;;;2.43;;
5650;SDS011;40241;52.684;9.758;2023-09-30T03:16:46;5.37;;;2.27;;
5650;SDS011;40241;52.684;9.758;2023-09-30T03:19:12;5.00;;;2.20;;
5650;SDS011;40241;52.684;9.758;2023-09-30T03:21:37;8.37;;;2.80;;
5650;SDS011;40241;52.684;9.758;2023-09-30T03:24:03;7.37;;;2.50;;
5650;SDS011;40241;52.684;9.758;2023-09-30T03:26:29;5.87;;;2.10;;
5650;SDS011;40241;52.684;9.758;2023-09-30T03:28:55;4.80;;;1.70;;
5650;SDS011;40241;52.684;9.758;2023-09-30T03:31:21;5.37;;;2.20;;
5650;SDS011;40241;52.684;9.758;2023-09-30T03:33:47;3.50;;;2.00;;
5650;SDS011;40241;52.684;9.758;2023-09-30T03:36:16;8.93;;;2.60;;
5650;SDS011;40241;52.684;9.758;2023-09-30T03:38:41;4.60;;;1.70;;
5650;SDS011;40241;52.684;9.758;2023-09-30T03:41:07;5.67;;;2.73;;
5650;SDS011;40241;52.684;9.758;2023-09-30T03:43:33;4.10;;;2.63;;
5650;SDS011;40241;52.684;9.758;2023-09-30T03:46:01;6.70;;;2.60;;
5650;SDS011;40241;52.684;9.758;2023-09-30T03:48:27;5.97;;;2.53;;
5650;SDS011;40241;52.684;9.758;2023-09-30T03:50:52;4.60;;;2.30;;
5650;SDS011;40241;52.684;9.758;2023-09-30T03:53:18;2.37;;;2.17;;
5650;SDS011;40241;52.684;9.758;2023-09-30T03:55:45;6.10;;;2.70;;
5650;SDS011;40241;52.684;9.758;2023-09-30T03:58:10;4.70;;;2.50;;
5650;SDS011;40241;52.684;9.758;2023-09-30T04:00:37;5.40;;;2.43;;
5650;SDS011;40241;52.684;9.758;2023-09-30T04:03:05;2.40;;;1.77;;
5650;SDS011;40241;52.684;9.758;2023-09-30T04:05:30;6.10;;;2.90;;
5650;SDS011;40241;52.684;9.758;2023-09-30T04:07:59;6.17;;;2.30;;
5650;SDS011;40241;52.684;9.758;2023-09-30T04:10:24;3.07;;;2.00;;
5650;SDS011;40241;52.684;9.758;2023-09-30T04:12:50;4.53;;;2.20;;
5650;SDS011;40241;52.684;9.758;2023-09-30T04:15:15;4.40;;;2.23;;
5650;SDS011;40241;52.684;9.758;2023-09-30T04:17:41;4.10;;;2.20;;
5650;SDS011;40241;52.684;9.758;2023-09-30T04:20:07;4.80;;;2.10;;
5650;SDS011;40241;52.684;9.758;2023-09-30T04:22:36;4.00;;;2.10;;
5650;SDS011;40241;52.684;9.758;2023-09-30T04:25:02;4.07;;;2.37;;
5650;SDS011;40241;52.684;9.758;2023-09-30T04:27:33;4.97;;;2.30;;
5650;SDS011;40241;52.684;9.758;2023-09-30T04:29:58;6.63;;;2.30;;
5650;SDS011;40241;52.684;9.758;2023-09-30T04:32:24;7.40;;;2.83;;
5650;SDS011;40241;52.684;9.758;2023-09-30T04:34:52;3.20;;;1.60;;
5650;SDS011;40241;52.684;9.758;2023-09-30T04:37:17;3.13;;;1.97;;
5650;SDS011;40241;52.684;9.758;2023-09-30T04:39:43;3.03;;;1.57;;
5650;SDS011;40241;52.684;9.758;2023-09-30T04:42:09;7.70;;;1.80;;
5650;SDS011;40241;52.684;9.758;2023-09-30T04:44:36;3.10;;;1.73;;
5650;SDS011;40241;52.684;9.758;2023-09-30T04:47:03;5.07;;;2.23;;
5650;SDS011;40241;52.684;9.758;2023-09-30T04:49:29;5.10;;;2.40;;
5650;SDS011;40241;52.684;9.758;2023-09-30T04:51:54;5.17;;;2.30;;
5650;SDS011;40241;52.684;9.758;2023-09-30T04:54:20;2.50;;;2.13;;
5650;SDS011;40241;52.684;9.758;2023-09-30T04:56:46;4.40;;;2.27;;
5650;SDS011;40241;52.684;9.758;2023-09-30T04:59:12;4.30;;;1.90;;
5650;SDS011;40241;52.684;9.758;2023-09-30T05:01:37;3.23;;;1.63;;
5650;SDS011;40241;52.684;9.758;2023-09-30T05:04:03;6.23;;;2.67;;
5650;SDS011;40241;52.684;9.758;2023-09-30T05:06:28;6.07;;;2.67;;
5650;SDS011;40241;52.684;9.758;2023-09-30T05:08:54;5.30;;;2.53;;
5650;SDS011;40241;52.684;9.758;2023-09-30T05:11:20;5.80;;;1.97;;
5650;SDS011;40241;52.684;9.758;2023-09-30T05:13:45;3.33;;;2.13;;
5650;SDS011;40241;52.684;9.758;2023-09-30T05:16:11;4.73;;;2.03;;
5650;SDS011;40241;52.684;9.758;2023-09-30T05:18:38;6.53;;;1.83;;
5650;SDS011;40241;52.684;9.758;2023-09-30T05:21:03;5.20;;;2.67;;
5650;SDS011;40241;52.684;9.758;2023-09-30T05:23:29;3.40;;;2.03;;
5650;SDS011;40241;52.684;9.758;2023-09-30T05:25:54;3.80;;;2.10;;
5650;SDS011;40241;52.684;9.758;2023-09-30T05:28:20;3.53;;;2.43;;
5650;SDS011;40241;52.684;9.758;2023-09-30T05:30:45;5.80;;;2.30;;
5650;SDS011;40241;52.684;9.758;2023-09-30T05:33:11;2.50;;;2.03;;
5650;SDS011;40241;52.684;9.758;2023-09-30T05:35:39;6.97;;;2.40;;
5650;SDS011;40241;52.684;9.758;2023-09-30T05:38:06;7.30;;;2.20;;
5650;SDS011;40241;52.684;9.758;2023-09-30T05:40:32;6.33;;;2.87;;
5650;SDS011;40241;52.684;9.758;2023-09-30T05:42:58;7.23;;;2.43;;
5650;SDS011;40241;52.684;9.758;2023-09-30T05:45:25;4.70;;;2.10;;
5650;SDS011;40241;52.684;9.758;2023-09-30T05:47:56;5.03;;;2.13;;
5650;SDS011;40241;52.684;9.758;2023-09-30T05:50:22;5.73;;;2.17;;
5650;SDS011;40241;52.684;9.758;2023-09-30T05:52:51;5.30;;;2.50;;
5650;SDS011;40241;52.684;9.758;2023-09-30T05:55:18;4.67;;;2.40;;
5650;SDS011;40241;52.684;9.758;2023-09-30T05:57:47;7.37;;;2.10;;
5650;SDS011;40241;52.684;9.758;2023-09-30T06:00:14;6.27;;;2.10;;
5650;SDS011;40241;52.684;9.758;2023-09-30T06:02:46;6.70;;;2.27;;
5650;SDS011;40241;52.684;9.758;2023-09-30T06:05:12;13.33;;;2.73;;
5650;SDS011;40241;52.684;9.758;2023-09-30T06:07:37;4.27;;;2.00;;
5650;SDS011;40241;52.684;9.758;2023-09-30T06:10:03;3.13;;;1.93;;
5650;SDS011;40241;52.684;9.758;2023-09-30T06:12:28;6.20;;;2.23;;
5650;SDS011;40241;52.684;9.758;2023-09-30T06:14:54;6.77;;;2.30;;
5650;SDS011;40241;52.684;9.758;2023-09-30T06:17:19;5.30;;;2.30;;
5650;SDS011;40241;52.684;9.758;2023-09-30T06:19:47;5.50;;;2.63;;
5650;SDS011;40241;52.684;9.758;2023-09-30T06:22:14;4.30;;;1.97;;
5650;SDS011;40241;52.684;9.758;2023-09-30T06:24:39;6.67;;;2.30;;
5650;SDS011;40241;52.684;9.758;2023-09-30T06:27:05;5.67;;;2.20;;
5650;SDS011;40241;52.684;9.758;2023-09-30T06:29:30;6.50;;;2.50;;
5650;SDS011;40241;52.684;9.758;2023-09-30T06:31:56;2.20;;;1.80;;
5650;SDS011;40241;52.684;9.758;2023-09-30T06:34:21;7.00;;;1.90;;
5650;SDS011;40241;52.684;9.758;2023-09-30T06:36:46;6.70;;;1.90;;
5650;SDS011;40241;52.684;9.758;2023-09-30T06:39:12;4.40;;;2.07;;
5650;SDS011;40241;52.684;9.758;2023-09-30T06:41:37;6.40;;;2.17;;
5650;SDS011;40241;52.684;9.758;2023-09-30T06:44:04;5.17;;;2.40;;
5650;SDS011;40241;52.684;9.758;2023-09-30T06:46:29;4.50;;;2.03;;
5650;SDS011;40241;52.684;9.758;2023-09-30T06:48:55;3.33;;;1.80;;
5650;SDS011;40241;52.684;9.758;2023-09-30T06:51:20;5.77;;;2.20;;
5650;SDS011;40241;52.684;9.758;2023-09-30T06:53:45;3.37;;;1.40;;
5650;SDS011;40241;52.684;9.758;2023-09-30T06:56:11;6.40;;;2.17;;
5650;SDS011;40241;52.684;9.758;2023-09-30T06:58:37;3.77;;;1.97;;
5650;SDS011;40241;52.684;9.758;2023-09-30T07:01:03;4.27;;;1.83;;
5650;SDS011;40241;52.684;9.758;2023-09-30T07:03:28;5.13;;;2.20;;
5650;SDS011;40241;52.684;9.758;2023-09-30T07:05:53;5.67;;;2.40;;
5650;SDS011;40241;52.684;9.758;2023-09-30T07:08:21;5.90;;;2.00;;
5650;SDS011;40241;52.684;9.758;2023-09-30T07:10:46;4.50;;;2.13;;
5650;SDS011;40241;52.684;9.758;2023-09-30T07:13:14;4.33;;;1.93;;
5650;SDS011;40241;52.684;9.758;2023-09-30T07:15:40;4.90;;;2.03;;
5650;SDS011;40241;52.684;9.758;2023-09-30T07:18:06;5.67;;;2.20;;
5650;SDS011;40241;52.684;9.758;2023-09-30T07:20:31;9.83;;;2.57;;
5650;SDS011;40241;52.684;9.758;2023-09-30T07:22:58;8.87;;;2.60;;
5650;SDS011;40241;52.684;9.758;2023-09-30T07:25:25;4.40;;;1.80;;
5650;SDS011;40241;52.684;9.758;2023-09-30T07:27:50;4.63;;;1.70;;
5650;SDS011;40241;52.684;9.758;2023-09-30T07:30:15;5.83;;;2.20;;
5650;SDS011;40241;52.684;9.758;2023-09-30T07:32:42;5.67;;;2.20;;
5650;SDS011;40241;52.684;9.758;2023-09-30T07:35:07;1.77;;;1.40;;
5650;SDS011;40241;52.684;9.758;2023-09-30T07:37:33;5.43;;;2.03;;
5650;SDS011;40241;52.684;9.758;2023-09-30T07:39:59;4.40;;;1.93;;
5650;SDS011;40241;52.684;9.758;2023-09-30T07:42:24;4.40;;;2.13;;
5650;SDS011;40241;52.684;9.758;2023-09-30T07:44:50;4.87;;;1.87;;
5650;SDS011;40241;52.684;9.758;2023-09-30T07:47:15;8.13;;;2.40;;
5650;SDS011;40241;52.684;9.758;2023-09-30T07:49:40;8.83;;;2.37;;
5650;SDS011;40241;52.684;9.758;2023-09-30T07:52:06;3.43;;;1.90;;
5650;SDS011;40241;52.684;9.758;2023-09-30T07:54:31;4.93;;;2.00;;
5650;SDS011;40241;52.684;9.758;2023-09-30T07:56:57;9.30;;;2.03;;
5650;SDS011;40241;52.684;9.758;2023-09-30T07:59:22;4.13;;;1.90;;
5650;SDS011;40241;52.684;9.758;2023-09-30T08:01:48;4.53;;;2.10;;
5650;SDS011;40241;52.684;9.758;2023-09-30T08:04:13;5.90;;;2.03;;
5650;SDS011;40241;52.684;9.758;2023-09-30T08:06:38;6.83;;;1.93;;
5650;SDS011;40241;52.684;9.758;2023-09-30T08:09:04;5.30;;;1.80;;
5650;SDS011;40241;52.684;9.758;2023-09-30T08:11:34;3.47;;;1.90;;
5650;SDS011;40241;52.684;9.758;2023-09-30T08:14:02;5.23;;;1.97;;
5650;SDS011;40241;52.684;9.758;2023-09-30T08:16:31;4.50;;;1.70;;
5650;SDS011;40241;52.684;9.758;2023-09-30T08:18:57;8.83;;;2.50;;
5650;SDS011;40241;52.684;9.758;2023-09-30T08:21:23;10.27;;;2.30;;
5650;SDS011;40241;52.684;9.758;2023-09-30T08:23:48;5.47;;;1.97;;
5650;SDS011;40241;52.684;9.758;2023-09-30T08:26:13;10.20;;;2.00;;
5650;SDS011;40241;52.684;9.758;2023-09-30T08:28:38;7.90;;;1.90;;
5650;SDS011;40241;52.684;9.758;2023-09-30T08:31:04;3.77;;;1.43;;
5650;SDS011;40241;52.684;9.758;2023-09-30T08:33:30;5.17;;;2.03;;
5650;SDS011;40241;52.684;9.758;2023-09-30T08:35:56;7.27;;;2.20;;
5650;SDS011;40241;52.684;9.758;2023-09-30T08:38:26;8.10;;;2.40;;
5650;SDS011;40241;52.684;9.758;2023-09-30T08:40:52;9.80;;;1.93;;
5650;SDS011;40241;52.684;9.758;2023-09-30T08:43:19;5.13;;;2.00;;
5650;SDS011;40241;52.684;9.758;2023-09-30T08:45:52;5.43;;;1.93;;
5650;SDS011;40241;52.684;9.758;2023-09-30T08:48:19;4.77;;;1.60;;
5650;SDS011;40241;52.684;9.758;2023-09-30T08:50:45;5.23;;;2.17;;
5650;SDS011;40241;52.684;9.758;2023-09-30T08:53:14;2.67;;;1.40;;
5650;SDS011;40241;52.684;9.758;2023-09-30T08:55:41;8.87;;;1.87;;
5650;SDS011;40241;52.684;9.758;2023-09-30T08:58:10;5.30;;;1.90;;
5650;SDS011;40241;52.684;9.758;2023-09-30T09:00:37;4.20;;;1.63;;
5650;SDS011;40241;52.684;9.758;2023-09-30T09:03:03;3.07;;;1.80;;
5650;SDS011;40241;52.684;9.758;2023-09-30T09:05:30;4.53;;;2.17;;
5650;SDS011;40241;52.684;9.758;2023-09-30T09:07:56;4.00;;;1.70;;
5650;SDS011;40241;52.684;9.758;2023-09-30T09:10:21;5.43;;;1.80;;
5650;SDS011;40241;52.684;9.758;2023-09-30T09:12:54;8.63;;;1.83;;
5650;SDS011;40241;52.684;9.758;2023-09-30T09:15:25;4.23;;;1.30;;
5650;SDS011;40241;52.684;9.758;2023-09-30T09:17:52;8.90;;;2.03;;
5650;SDS011;40241;52.684;9.758;2023-09-30T09:20:19;3.90;;;1.70;;
5650;SDS011;40241;52.684;9.758;2023-09-30T09:22:46;3.77;;;1.70;;
5650;SDS011;40241;52.684;9.758;2023-09-30T09:25:17;4.77;;;1.57;;
5650;SDS011;40241;52.684;9.758;2023-09-30T09:27:43;3.70;;;1.93;;
5650;SDS011;40241;52.684;9.758;2023-09-30T09:32:51;3.33;;;1.93;;
5650;SDS011;40241;52.684;9.758;2023-09-30T09:35:27;6.53;;;1.63;;
5650;SDS011;40241;52.684;9.758;2023-09-30T09:38:02;3.90;;;1.57;;
5650;SDS011;40241;52.684;9.758;2023-09-30T09:40:30;4.40;;;1.83;;
5650;SDS011;40241;52.684;9.758;2023-09-30T09:42:59;6.43;;;1.83;;
5650;SDS011;40241;52.684;9.758;2023-09-30T09:45:29;5.87;;;1.73;;
5650;SDS011;40241;52.684;9.758;2023-09-30T09:47:57;6.30;;;1.97;;
5650;SDS011;40241;52.684;9.758;2023-09-30T09:50:23;3.00;;;1.47;;
5650;SDS011;40241;52.684;9.758;2023-09-30T09:52:49;5.07;;;1.83;;
5650;SDS011;40241;52.684;9.758;2023-09-30T09:55:16;4.20;;;1.80;;
5650;SDS011;40241;52.684;9.758;2023-09-30T09:57:43;3.57;;;1.70;;
5650;SDS011;40241;52.684;9.758;2023-09-30T10:00:14;3.07;;;1.57;;
5650;SDS011;40241;52.684;9.758;2023-09-30T10:02:43;4.80;;;1.50;;
5650;SDS011;40241;52.684;9.758;2023-09-30T10:05:10;5.23;;;1.60;;
5650;SDS011;40241;52.684;9.758;2023-09-30T10:07:38;6.67;;;1.80;;
5650;SDS011;40241;52.684;9.758;2023-09-30T10:10:10;5.37;;;1.53;;
5650;SDS011;40241;52.684;9.758;2023-09-30T10:12:41;5.50;;;1.73;;
5650;SDS011;40241;52.684;9.758;2023-09-30T10:20:28;2.77;;;1.33;;
5650;SDS011;40241;52.684;9.758;2023-09-30T10:25:50;3.50;;;1.47;;
5650;SDS011;40241;52.684;9.758;2023-09-30T10:28:33;2.90;;;1.50;;
5650;SDS011;40241;52.684;9.758;2023-09-30T10:33:34;3.63;;;1.60;;
5650;SDS011;40241;52.684;9.758;2023-09-30T10:35:59;2.67;;;1.37;;
5650;SDS011;40241;52.684;9.758;2023-09-30T10:40:54;3.53;;;1.53;;
5650;SDS011;40241;52.684;9.758;2023-09-30T10:45:56;2.50;;;1.40;;
5650;SDS011;40241;52.684;9.758;2023-09-30T10:50:53;5.03;;;1.77;;
5650;SDS011;40241;52.684;9.758;2023-09-30T10:53:20;5.83;;;1.63;;
5650;SDS011;40241;52.684;9.758;2023-09-30T10:56:03;6.36;;;0.85;;
5650;SDS011;40241;52.684;9.758;2023-09-30T11:01:09;3.27;;;1.70;;
5650;SDS011;40241;52.684;9.758;2023-09-30T11:03:35;3.83;;;1.37;;
5650;SDS011;40241;52.684;9.758;2023-09-30T11:06:01;3.70;;;1.40;;
5650;SDS011;40241;52.684;9.758;2023-09-30T11:08:28;2.70;;;1.13;;
5650;SDS011;40241;52.684;9.758;2023-09-30T11:10:57;1.73;;;1.10;;
5650;SDS011;40241;52.684;9.758;2023-09-30T11:13:22;4.63;;;1.43;;
5650;SDS011;40241;52.684;9.758;2023-09-30T11:15:55;3.07;;;1.60;;
5650;SDS011;40241;52.684;9.758;2023-09-30T11:18:24;5.30;;;1.50;;
5650;SDS011;40241;52.684;9.758;2023-09-30T11:20:50;3.47;;;1.33;;
5650;SDS011;40241;52.684;9.758;2023-09-30T11:23:27;5.87;;;1.70;;
5650;SDS011;40241;52.684;9.758;2023-09-30T11:25:53;5.40;;;1.63;;
5650;SDS011;40241;52.684;9.758;2023-09-30T11:28:19;4.47;;;1.43;;
5650;SDS011;40241;52.684;9.758;2023-09-30T11:30:56;1.63;;;1.20;;
5650;SDS011;40241;52.684;9.758;2023-09-30T11:33:27;3.80;;;1.50;;
5650;SDS011;40241;52.684;9.758;2023-09-30T11:35:56;4.30;;;1.53;;
5650;SDS011;40241;52.684;9.758;2023-09-30T11:38:24;1.90;;;1.20;;
5650;SDS011;40241;52.684;9.758;2023-09-30T11:41:02;1.77;;;1.10;;
5650;SDS011;40241;52.684;9.758;2023-09-30T11:43:32;2.83;;;1.33;;
5650;SDS011;40241;52.684;9.758;2023-09-30T11:48:36;1.90;;;1.10;;
5650;SDS011;40241;52.684;9.758;2023-09-30T11:51:02;8.20;;;1.70;;
5650;SDS011;40241;52.684;9.758;2023-09-30T11:53:29;3.47;;;1.40;;
5650;SDS011;40241;52.684;9.758;2023-09-30T11:55:56;1.50;;;1.20;;
5650;SDS011;40241;52.684;9.758;2023-09-30T11:58:23;1.57;;;1.00;;
5650;SDS011;40241;52.684;9.758;2023-09-30T12:00:49;1.40;;;1.10;;
5650;SDS011;40241;52.684;9.758;2023-09-30T12:03:16;2.87;;;1.30;;
5650;SDS011;40241;52.684;9.758;2023-09-30T12:05:41;3.07;;;1.30;;
5650;SDS011;40241;52.684;9.758;2023-09-30T12:08:07;2.20;;;1.23;;
5650;SDS011;40241;52.684;9.758;2023-09-30T12:10:32;1.53;;;1.00;;
5650;SDS011;40241;52.684;9.758;2023-09-30T12:12:58;3.03;;;1.33;;
5650;SDS011;40241;52.684;9.758;2023-09-30T12:15:23;3.10;;;1.17;;
5650;SDS011;40241;52.684;9.758;2023-09-30T12:17:48;6.37;;;1.20;;
5650;SDS011;40241;52.684;9.758;2023-09-30T12:20:14;3.37;;;1.13;;
5650;SDS011;40241;52.684;9.758;2023-09-30T12:22:41;2.80;;;1.40;;
5650;SDS011;40241;52.684;9.758;2023-09-30T12:25:06;1.60;;;1.47;;
5650;SDS011;40241;52.684;9.758;2023-09-30T12:27:33;3.20;;;1.10;;
5650;SDS011;40241;52.684;9.758;2023-09-30T12:29:59;5.30;;;1.40;;
5650;SDS011;40241;52.684;9.758;2023-09-30T12:32:24;2.10;;;0.80;;
5650;SDS011;40241;52.684;9.758;2023-09-30T12:34:51;2.53;;;1.10;;
5650;SDS011;40241;52.684;9.758;2023-09-30T12:37:17;3.37;;;1.30;;
5650;SDS011;40241;52.684;9.758;2023-09-30T12:39:43;1.53;;;1.27;;
5650;SDS011;40241;52.684;9.758;2023-09-30T12:42:10;1.83;;;1.00;;
5650;SDS011;40241;52.684;9.758;2023-09-30T12:44:37;1.43;;;0.87;;
5650;SDS011;40241;52.684;9.758;2023-09-30T12:47:03;3.00;;;1.37;;
5650;SDS011;40241;52.684;9.758;2023-09-30T12:49:30;2.30;;;1.30;;
5650;SDS011;40241;52.684;9.758;2023-09-30T12:51:56;2.00;;;0.90;;
5650;SDS011;40241;52.684;9.758;2023-09-30T12:54:23;1.57;;;0.90;;
5650;SDS011;40241;52.684;9.758;2023-09-30T12:56:49;2.37;;;0.93;;
5650;SDS011;40241;52.684;9.758;2023-09-30T12:59:15;3.37;;;0.90;;
5650;SDS011;40241;52.684;9.758;2023-09-30T13:01:41;2.30;;;1.00;;
5650;SDS011;40241;52.684;9.758;2023-09-30T13:04:06;3.80;;;1.20;;
5650;SDS011;40241;52.684;9.758;2023-09-30T13:06:33;2.33;;;1.10;;
5650;SDS011;40241;52.684;9.758;2023-09-30T13:09:00;3.47;;;1.30;;
5650;SDS011;40241;52.684;9.758;2023-09-30T13:11:26;2.57;;;1.37;;
5650;SDS011;40241;52.684;9.758;2023-09-30T13:13:52;3.20;;;1.10;;
5650;SDS011;40241;52.684;9.758;2023-09-30T13:16:17;1.83;;;1.20;;
5650;SDS011;40241;52.684;9.758;2023-09-30T13:18:42;3.00;;;1.40;;
5650;SDS011;40241;52.684;9.758;2023-09-30T13:21:08;2.83;;;1.07;;
5650;SDS011;40241;52.684;9.758;2023-09-30T13:23:34;2.53;;;1.10;;
5650;SDS011;40241;52.684;9.758;2023-09-30T13:26:00;2.60;;;1.60;;
5650;SDS011;40241;52.684;9.758;2023-09-30T13:28:26;2.23;;;0.93;;
5650;SDS011;40241;52.684;9.758;2023-09-30T13:30:53;2.63;;;1.60;;
5650;SDS011;40241;52.684;9.758;2023-09-30T13:33:18;2.10;;;1.20;;
5650;SDS011;40241;52.684;9.758;2023-09-30T13:35:45;2.23;;;1.10;;
5650;SDS011;40241;52.684;9.758;2023-09-30T13:38:11;2.03;;;1.20;;
5650;SDS011;40241;52.684;9.758;2023-09-30T13:40:36;2.70;;;1.60;;
5650;SDS011;40241;52.684;9.758;2023-09-30T13:43:03;2.10;;;1.23;;
5650;SDS011;40241;52.684;9.758;2023-09-30T13:45:29;1.20;;;0.90;;
5650;SDS011;40241;52.684;9.758;2023-09-30T13:47:55;2.13;;;1.40;;
5650;SDS011;40241;52.684;9.758;2023-09-30T13:50:20;1.47;;;0.90;;
5650;SDS011;40241;52.684;9.758;2023-09-30T13:52:46;1.50;;;1.30;;
5650;SDS011;40241;52.684;9.758;2023-09-30T13:55:11;7.70;;;1.30;;
5650;SDS011;40241;52.684;9.758;2023-09-30T13:57:43;2.50;;;1.30;;
5650;SDS011;40241;52.684;9.758;2023-09-30T14:00:10;1.97;;;1.07;;
5650;SDS011;40241;52.684;9.758;2023-09-30T14:02:35;1.70;;;1.10;;
5650;SDS011;40241;52.684;9.758;2023-09-30T14:05:01;1.97;;;1.00;;
5650;SDS011;40241;52.684;9.758;2023-09-30T14:07:26;2.40;;;1.00;;
5650;SDS011;40241;52.684;9.758;2023-09-30T14:09:53;1.60;;;1.10;;
5650;SDS011;40241;52.684;9.758;2023-09-30T14:12:18;2.67;;;1.43;;
5650;SDS011;40241;52.684;9.758;2023-09-30T14:14:44;1.47;;;0.97;;
5650;SDS011;40241;52.684;9.758;2023-09-30T14:17:10;1.93;;;1.10;;
5650;SDS011;40241;52.684;9.758;2023-09-30T14:19:36;1.43;;;0.73;;
5650;SDS011;40241;52.684;9.758;2023-09-30T14:22:03;3.77;;;1.33;;
5650;SDS011;40241;52.684;9.758;2023-09-30T14:24:33;2.70;;;1.30;;
5650;SDS011;40241;52.684;9.758;2023-09-30T14:26:59;1.50;;;0.90;;
5650;SDS011;40241;52.684;9.758;2023-09-30T14:29:25;1.20;;;0.80;;
5650;SDS011;40241;52.684;9.758;2023-09-30T14:31:50;1.57;;;1.20;;
5650;SDS011;40241;52.684;9.758;2023-09-30T14:34:16;1.93;;;0.93;;
5650;SDS011;40241;52.684;9.758;2023-09-30T14:36:42;1.47;;;0.87;;
5650;SDS011;40241;52.684;9.758;2023-09-30T14:39:08;1.63;;;0.93;;
5650;SDS011;40241;52.684;9.758;2023-09-30T14:41:34;2.87;;;1.27;;
5650;SDS011;40241;52.684;9.758;2023-09-30T14:44:00;3.13;;;1.10;;
5650;SDS011;40241;52.684;9.758;2023-09-30T14:46:25;2.00;;;1.10;;
5650;SDS011;40241;52.684;9.758;2023-09-30T14:48:51;0.93;;;0.60;;
5650;SDS011;40241;52.684;9.758;2023-09-30T14:51:16;1.40;;;0.90;;
5650;SDS011;40241;52.684;9.758;2023-09-30T14:53:46;3.23;;;1.30;;
5650;SDS011;40241;52.684;9.758;2023-09-30T14:56:15;3.53;;;1.33;;
5650;SDS011;40241;52.684;9.758;2023-09-30T14:58:41;2.60;;;1.20;;
5650;SDS011;40241;52.684;9.758;2023-09-30T15:01:10;2.77;;;1.57;;
5650;SDS011;40241;52.684;9.758;2023-09-30T15:03:36;2.97;;;1.20;;
5650;SDS011;40241;52.684;9.758;2023-09-30T15:06:04;1.40;;;1.00;;
5650;SDS011;40241;52.684;9.758;2023-09-30T15:08:30;2.63;;;1.17;;
5650;SDS011;40241;52.684;9.758;2023-09-30T15:10:59;3.37;;;1.30;;
5650;SDS011;40241;52.684;9.758;2023-09-30T15:13:25;2.77;;;1.23;;
5650;SDS011;40241;52.684;9.758;2023-09-30T15:15:50;3.73;;;1.33;;
5650;SDS011;40241;52.684;9.758;2023-09-30T15:18:16;3.60;;;1.50;;
5650;SDS011;40241;52.684;9.758;2023-09-30T15:20:41;3.43;;;1.70;;
5650;SDS011;40241;52.684;9.758;2023-09-30T15:23:07;1.50;;;1.30;;